sensor_id;sensor_type;location;lat;lon;timestamp;pressure;altitude;pressure_sealevel;temperature;humidity
39487;BME280;25173;50.430;18.926;2022-12-29T00:02:34;98232.41;;;6.95;55.60
39487;BME280;25173;50.430;18.926;2022-12-29T00:05:34;98228.78;;;6.90;55.37
39487;BME280;25173;50.430;18.926;2022-12-29T00:08:35;98231.91;;;6.82;55.60
39487;BME280;25173;50.430;18.926;2022-12-29T00:11:41;98232.66;;;6.77;55.86
39487;BME280;25173;50.430;18.926;2022-12-29T00:14:42;98228.06;;;6.78;55.86
39487;BME280;25173;50.430;18.926;2022-12-29T00:18:01;98227.31;;;6.82;55.82
39487;BME280;25173;50.430;18.926;2022-12-29T00:21:02;98208.69;;;6.86;55.85
39487;BME280;25173;50.430;18.926;2022-12-29T00:24:22;98203.59;;;6.89;55.71
39487;BME280;25173;50.430;18.926;2022-12-29T00:27:41;98200.75;;;6.96;55.55
39487;BME280;25173;50.430;18.926;2022-12-29T00:31:00;98204.50;;;6.95;55.48
39487;BME280;25173;50.430;18.926;2022-12-29T00:34:20;98211.88;;;6.99;55.63
39487;BME280;25173;50.430;18.926;2022-12-29T00:37:42;98191.03;;;7.00;55.34
39487;BME280;25173;50.430;18.926;2022-12-29T00:41:03;98194.56;;;7.00;55.51
39487;BME280;25173;50.430;18.926;2022-12-29T00:44:22;98181.28;;;6.99;55.32
39487;BME280;25173;50.430;18.926;2022-12-29T00:47:23;98189.16;;;7.00;55.53
39487;BME280;25173;50.430;18.926;2022-12-29T00:50:23;98172.66;;;7.02;55.34
39487;BME280;25173;50.430;18.926;2022-12-29T00:53:24;98174.28;;;7.03;55.41
39487;BME280;25173;50.430;18.926;2022-12-29T00:56:25;98187.25;;;7.01;55.24
39487;BME280;25173;50.430;18.926;2022-12-29T00:59:25;98174.78;;;7.00;55.26
39487;BME280;25173;50.430;18.926;2022-12-29T01:02:26;98182.16;;;7.05;55.23
39487;BME280;25173;50.430;18.926;2022-12-29T01:05:26;98170.59;;;7.09;55.27
39487;BME280;25173;50.430;18.926;2022-12-29T01:08:28;98176.88;;;7.15;55.21
39487;BME280;25173;50.430;18.926;2022-12-29T01:11:29;98171.22;;;7.16;55.27
39487;BME280;25173;50.430;18.926;2022-12-29T01:14:30;98186.31;;;7.12;55.14
39487;BME280;25173;50.430;18.926;2022-12-29T01:17:31;98182.28;;;7.15;55.03
39487;BME280;25173;50.430;18.926;2022-12-29T01:20:31;98184.81;;;7.21;55.26
39487;BME280;25173;50.430;18.926;2022-12-29T01:23:32;98200.03;;;7.27;55.15
39487;BME280;25173;50.430;18.926;2022-12-29T01:26:33;98216.06;;;7.29;55.22
39487;BME280;25173;50.430;18.926;2022-12-29T01:29:34;98222.03;;;7.31;55.16
39487;BME280;25173;50.430;18.926;2022-12-29T01:32:35;98215.88;;;7.35;55.29
39487;BME280;25173;50.430;18.926;2022-12-29T01:35:36;98220.22;;;7.36;55.06
39487;BME280;25173;50.430;18.926;2022-12-29T01:38:37;98223.75;;;7.37;55.10
39487;BME280;25173;50.430;18.926;2022-12-29T01:41:38;98207.72;;;7.35;55.13
39487;BME280;25173;50.430;18.926;2022-12-29T01:44:50;98199.69;;;7.40;55.01
39487;BME280;25173;50.430;18.926;2022-12-29T01:48:01;98190.47;;;7.41;54.94
39487;BME280;25173;50.430;18.926;2022-12-29T01:51:04;98180.41;;;7.37;55.01
39487;BME280;25173;50.430;18.926;2022-12-29T01:54:09;98180.72;;;7.40;54.93
39487;BME280;25173;50.430;18.926;2022-12-29T01:57:11;98174.97;;;7.37;53.96
39487;BME280;25173;50.430;18.926;2022-12-29T02:00:14;98165.41;;;7.29;54.89
39487;BME280;25173;50.430;18.926;2022-12-29T02:03:16;98158.91;;;7.30;55.02
39487;BME280;25173;50.430;18.926;2022-12-29T02:06:22;98145.19;;;7.37;55.02
39487;BME280;25173;50.430;18.926;2022-12-29T02:09:24;98133.78;;;7.35;54.87
39487;BME280;25173;50.430;18.926;2022-12-29T02:12:25;98113.75;;;7.36;54.98
39487;BME280;25173;50.430;18.926;2022-12-29T02:15:56;98123.94;;;7.29;54.57
39487;BME280;25173;50.430;18.926;2022-12-29T02:32:03;98135.41;;;7.36;54.87
39487;BME280;25173;50.430;18.926;2022-12-29T02:35:15;98127.22;;;7.31;54.86
39487;BME280;25173;50.430;18.926;2022-12-29T02:41:44;98142.09;;;7.28;54.37
39487;BME280;25173;50.430;18.926;2022-12-29T02:44:55;98134.50;;;7.25;54.62
39487;BME280;25173;50.430;18.926;2022-12-29T02:51:17;98130.19;;;7.29;54.30
39487;BME280;25173;50.430;18.926;2022-12-29T02:54:19;98136.19;;;7.31;54.31
39487;BME280;25173;50.430;18.926;2022-12-29T02:57:40;98140.53;;;7.32;54.23
39487;BME280;25173;50.430;18.926;2022-12-29T03:00:55;98143.28;;;7.37;54.10
39487;BME280;25173;50.430;18.926;2022-12-29T03:04:29;98122.19;;;7.39;53.99
39487;BME280;25173;50.430;18.926;2022-12-29T03:11:02;98123.88;;;7.46;54.23
39487;BME280;25173;50.430;18.926;2022-12-29T03:14:33;98107.63;;;7.46;53.79
39487;BME280;25173;50.430;18.926;2022-12-29T03:18:12;98112.47;;;7.44;53.96
39487;BME280;25173;50.430;18.926;2022-12-29T03:21:37;98108.94;;;7.43;54.02
39487;BME280;25173;50.430;18.926;2022-12-29T03:25:16;98118.94;;;7.43;54.17
39487;BME280;25173;50.430;18.926;2022-12-29T03:28:27;98110.00;;;7.42;54.31
39487;BME280;25173;50.430;18.926;2022-12-29T03:31:30;98114.31;;;7.38;54.05
39487;BME280;25173;50.430;18.926;2022-12-29T03:34:33;98111.28;;;7.34;54.23
39487;BME280;25173;50.430;18.926;2022-12-29T03:37:41;98134.28;;;7.32;54.08
39487;BME280;25173;50.430;18.926;2022-12-29T03:40:46;98103.44;;;7.33;54.10
39487;BME280;25173;50.430;18.926;2022-12-29T03:43:48;98096.91;;;7.34;54.06
39487;BME280;25173;50.430;18.926;2022-12-29T03:46:49;98090.75;;;7.38;54.16
39487;BME280;25173;50.430;18.926;2022-12-29T03:49:51;98099.97;;;7.43;54.05
39487;BME280;25173;50.430;18.926;2022-12-29T03:52:51;98084.31;;;7.45;54.07
39487;BME280;25173;50.430;18.926;2022-12-29T03:55:52;98078.88;;;7.45;53.93
39487;BME280;25173;50.430;18.926;2022-12-29T03:58:53;98085.13;;;7.45;54.10
39487;BME280;25173;50.430;18.926;2022-12-29T04:02:14;98076.94;;;7.40;54.18
39487;BME280;25173;50.430;18.926;2022-12-29T04:05:15;98075.06;;;7.40;54.34
39487;BME280;25173;50.430;18.926;2022-12-29T04:08:16;98074.50;;;7.38;54.31
39487;BME280;25173;50.430;18.926;2022-12-29T04:11:17;98084.50;;;7.38;54.42
39487;BME280;25173;50.430;18.926;2022-12-29T04:14:18;98083.19;;;7.40;54.36
39487;BME280;25173;50.430;18.926;2022-12-29T04:17:18;98088.28;;;7.37;54.44
39487;BME280;25173;50.430;18.926;2022-12-29T04:20:21;98079.28;;;7.31;54.52
39487;BME280;25173;50.430;18.926;2022-12-29T04:23:41;98061.41;;;7.30;54.54
39487;BME280;25173;50.430;18.926;2022-12-29T04:26:44;98064.06;;;7.25;54.69
39487;BME280;25173;50.430;18.926;2022-12-29T04:30:03;98053.72;;;7.22;54.82
39487;BME280;25173;50.430;18.926;2022-12-29T04:33:21;98066.41;;;7.17;54.88
39487;BME280;25173;50.430;18.926;2022-12-29T04:36:23;98071.56;;;7.18;54.87
39487;BME280;25173;50.430;18.926;2022-12-29T04:39:24;98066.09;;;7.13;55.01
39487;BME280;25173;50.430;18.926;2022-12-29T04:42:24;98064.19;;;7.14;55.24
39487;BME280;25173;50.430;18.926;2022-12-29T04:45:26;98056.91;;;7.14;55.16
39487;BME280;25173;50.430;18.926;2022-12-29T04:48:34;98058.53;;;7.15;55.07
39487;BME280;25173;50.430;18.926;2022-12-29T04:51:53;98053.13;;;7.15;55.00
39487;BME280;25173;50.430;18.926;2022-12-29T04:54:54;98057.72;;;7.15;55.20
39487;BME280;25173;50.430;18.926;2022-12-29T04:57:56;98068.53;;;7.15;55.17
39487;BME280;25173;50.430;18.926;2022-12-29T05:00:57;98067.47;;;7.16;55.18
39487;BME280;25173;50.430;18.926;2022-12-29T05:04:00;98069.13;;;7.17;55.15
39487;BME280;25173;50.430;18.926;2022-12-29T05:07:01;98077.25;;;7.17;55.37
39487;BME280;25173;50.430;18.926;2022-12-29T05:10:03;98082.13;;;7.20;55.25
39487;BME280;25173;50.430;18.926;2022-12-29T05:13:04;98081.25;;;7.14;55.17
39487;BME280;25173;50.430;18.926;2022-12-29T05:16:05;98074.22;;;7.13;55.42
39487;BME280;25173;50.430;18.926;2022-12-29T05:19:06;98078.81;;;7.13;55.45
39487;BME280;25173;50.430;18.926;2022-12-29T05:22:07;98082.34;;;7.13;55.50
39487;BME280;25173;50.430;18.926;2022-12-29T05:25:09;98062.63;;;7.18;55.56
39487;BME280;25173;50.430;18.926;2022-12-29T05:28:21;98063.75;;;7.22;55.43
39487;BME280;25173;50.430;18.926;2022-12-29T05:31:24;98060.22;;;7.21;55.38
39487;BME280;25173;50.430;18.926;2022-12-29T05:34:26;98055.88;;;7.20;55.47
39487;BME280;25173;50.430;18.926;2022-12-29T05:37:27;98056.94;;;7.19;55.53
39487;BME280;25173;50.430;18.926;2022-12-29T05:40:28;98049.38;;;7.21;55.87
39487;BME280;25173;50.430;18.926;2022-12-29T05:43:33;98064.56;;;7.22;55.63
39487;BME280;25173;50.430;18.926;2022-12-29T05:46:50;98040.69;;;7.19;55.62
39487;BME280;25173;50.430;18.926;2022-12-29T05:50:09;98028.84;;;7.25;55.73
39487;BME280;25173;50.430;18.926;2022-12-29T05:53:28;98031.84;;;7.29;55.71
39487;BME280;25173;50.430;18.926;2022-12-29T05:56:30;98036.78;;;7.32;55.83
39487;BME280;25173;50.430;18.926;2022-12-29T05:59:33;98027.88;;;7.36;55.81
39487;BME280;25173;50.430;18.926;2022-12-29T06:02:35;98033.31;;;7.41;55.72
39487;BME280;25173;50.430;18.926;2022-12-29T06:05:36;98026.84;;;7.43;55.67
39487;BME280;25173;50.430;18.926;2022-12-29T06:08:37;98028.25;;;7.50;55.68
39487;BME280;25173;50.430;18.926;2022-12-29T06:11:38;98041.34;;;7.58;55.51
39487;BME280;25173;50.430;18.926;2022-12-29T06:14:39;98040.31;;;7.64;55.40
39487;BME280;25173;50.430;18.926;2022-12-29T06:17:40;98038.47;;;7.70;55.27
39487;BME280;25173;50.430;18.926;2022-12-29T06:20:42;98026.34;;;7.77;55.09
39487;BME280;25173;50.430;18.926;2022-12-29T06:23:42;98044.28;;;7.84;55.21
39487;BME280;25173;50.430;18.926;2022-12-29T06:26:44;98035.91;;;7.90;55.07
39487;BME280;25173;50.430;18.926;2022-12-29T06:29:44;98035.44;;;7.98;54.78
39487;BME280;25173;50.430;18.926;2022-12-29T06:32:45;98046.81;;;8.00;54.86
39487;BME280;25173;50.430;18.926;2022-12-29T06:35:47;98044.41;;;8.04;54.98
39487;BME280;25173;50.430;18.926;2022-12-29T06:38:48;98031.44;;;8.06;54.76
39487;BME280;25173;50.430;18.926;2022-12-29T06:41:53;98035.22;;;8.05;54.79
39487;BME280;25173;50.430;18.926;2022-12-29T06:45:15;98026.00;;;8.06;54.77
39487;BME280;25173;50.430;18.926;2022-12-29T06:48:16;98026.53;;;8.08;54.66
39487;BME280;25173;50.430;18.926;2022-12-29T06:51:16;98015.16;;;8.06;54.78
39487;BME280;25173;50.430;18.926;2022-12-29T06:54:17;98016.50;;;8.08;54.63
39487;BME280;25173;50.430;18.926;2022-12-29T06:57:18;98012.47;;;8.11;54.74
39487;BME280;25173;50.430;18.926;2022-12-29T07:00:19;98016.50;;;8.08;54.65
39487;BME280;25173;50.430;18.926;2022-12-29T07:03:19;98005.63;;;8.03;54.70
39487;BME280;25173;50.430;18.926;2022-12-29T07:06:20;98027.06;;;8.00;54.66
39487;BME280;25173;50.430;18.926;2022-12-29T07:09:21;98022.97;;;7.97;54.82
39487;BME280;25173;50.430;18.926;2022-12-29T07:12:22;98036.19;;;7.94;54.80
39487;BME280;25173;50.430;18.926;2022-12-29T07:15:23;98012.84;;;7.88;54.81
39487;BME280;25173;50.430;18.926;2022-12-29T07:18:23;98017.44;;;7.87;55.02
39487;BME280;25173;50.430;18.926;2022-12-29T07:21:24;98032.66;;;7.88;54.95
39487;BME280;25173;50.430;18.926;2022-12-29T07:24:25;98035.91;;;7.90;54.98
39487;BME280;25173;50.430;18.926;2022-12-29T07:27:26;98038.63;;;7.90;54.86
39487;BME280;25173;50.430;18.926;2022-12-29T07:30:27;98054.91;;;7.90;54.77
39487;BME280;25173;50.430;18.926;2022-12-29T07:33:28;98044.31;;;7.89;55.06
39487;BME280;25173;50.430;18.926;2022-12-29T07:36:29;98041.59;;;7.89;55.07
39487;BME280;25173;50.430;18.926;2022-12-29T07:39:30;98043.50;;;7.93;55.14
39487;BME280;25173;50.430;18.926;2022-12-29T07:42:31;98037.06;;;7.99;55.02
39487;BME280;25173;50.430;18.926;2022-12-29T07:45:33;98035.72;;;8.02;54.96
39487;BME280;25173;50.430;18.926;2022-12-29T07:48:43;98026.00;;;8.06;54.95
39487;BME280;25173;50.430;18.926;2022-12-29T07:51:43;98025.19;;;8.10;55.02
39487;BME280;25173;50.430;18.926;2022-12-29T07:54:44;98037.22;;;8.19;55.03
39487;BME280;25173;50.430;18.926;2022-12-29T07:57:45;98035.19;;;8.37;54.88
39487;BME280;25173;50.430;18.926;2022-12-29T08:00:46;98035.53;;;8.50;54.82
39487;BME280;25173;50.430;18.926;2022-12-29T08:03:46;98035.59;;;8.66;54.48
39487;BME280;25173;50.430;18.926;2022-12-29T08:06:47;98032.91;;;8.76;54.28
39487;BME280;25173;50.430;18.926;2022-12-29T08:09:48;98028.34;;;8.81;54.11
39487;BME280;25173;50.430;18.926;2022-12-29T08:12:49;98027.25;;;8.87;53.86
39487;BME280;25173;50.430;18.926;2022-12-29T08:15:50;98014.50;;;8.93;53.86
39487;BME280;25173;50.430;18.926;2022-12-29T08:18:51;98018.59;;;9.01;53.66
39487;BME280;25173;50.430;18.926;2022-12-29T08:21:52;98016.97;;;8.94;53.41
39487;BME280;25173;50.430;18.926;2022-12-29T08:24:53;98020.75;;;8.93;53.53
39487;BME280;25173;50.430;18.926;2022-12-29T08:27:53;98016.41;;;8.92;53.45
39487;BME280;25173;50.430;18.926;2022-12-29T08:30:57;98029.72;;;8.94;53.37
39487;BME280;25173;50.430;18.926;2022-12-29T08:33:59;98038.44;;;9.01;53.48
39487;BME280;25173;50.430;18.926;2022-12-29T08:37:00;98046.59;;;9.06;53.43
39487;BME280;25173;50.430;18.926;2022-12-29T08:40:01;98046.06;;;9.09;53.39
39487;BME280;25173;50.430;18.926;2022-12-29T08:43:04;98028.41;;;9.12;53.21
39487;BME280;25173;50.430;18.926;2022-12-29T08:46:05;98030.06;;;9.23;53.26
39487;BME280;25173;50.430;18.926;2022-12-29T08:49:05;98026.28;;;9.29;53.19
39487;BME280;25173;50.430;18.926;2022-12-29T08:52:07;98026.81;;;9.36;52.99
39487;BME280;25173;50.430;18.926;2022-12-29T08:55:08;98025.22;;;9.40;53.13
39487;BME280;25173;50.430;18.926;2022-12-29T08:58:10;98030.91;;;9.44;52.96
39487;BME280;25173;50.430;18.926;2022-12-29T09:01:15;98043.97;;;9.47;52.50
39487;BME280;25173;50.430;18.926;2022-12-29T09:04:15;98038.28;;;9.53;52.70
39487;BME280;25173;50.430;18.926;2022-12-29T09:07:16;98068.72;;;9.65;52.73
39487;BME280;25173;50.430;18.926;2022-12-29T09:10:17;98035.84;;;9.77;52.46
39487;BME280;25173;50.430;18.926;2022-12-29T09:13:18;98041.28;;;9.87;52.35
39487;BME280;25173;50.430;18.926;2022-12-29T09:16:20;98036.38;;;10.04;52.32
39487;BME280;25173;50.430;18.926;2022-12-29T09:19:21;98036.91;;;10.17;52.10
39487;BME280;25173;50.430;18.926;2022-12-29T09:22:22;98047.53;;;10.28;51.82
39487;BME280;25173;50.430;18.926;2022-12-29T09:25:22;98045.88;;;10.32;51.27
39487;BME280;25173;50.430;18.926;2022-12-29T09:28:24;98051.59;;;10.41;51.65
39487;BME280;25173;50.430;18.926;2022-12-29T09:31:25;98058.34;;;10.54;51.35
39487;BME280;25173;50.430;18.926;2022-12-29T09:34:26;98036.59;;;10.59;51.06
39487;BME280;25173;50.430;18.926;2022-12-29T09:37:27;98032.72;;;10.70;51.03
39487;BME280;25173;50.430;18.926;2022-12-29T09:40:32;98029.41;;;10.78;51.19
39487;BME280;25173;50.430;18.926;2022-12-29T09:46:43;98036.94;;;11.01;50.57
39487;BME280;25173;50.430;18.926;2022-12-29T09:49:48;98032.53;;;11.15;50.68
39487;BME280;25173;50.430;18.926;2022-12-29T09:56:02;98036.50;;;11.33;50.11
39487;BME280;25173;50.430;18.926;2022-12-29T09:59:20;98037.56;;;11.37;49.84
39487;BME280;25173;50.430;18.926;2022-12-29T10:05:34;98036.78;;;11.32;50.24
39487;BME280;25173;50.430;18.926;2022-12-29T10:15:40;98027.41;;;11.48;49.48
39487;BME280;25173;50.430;18.926;2022-12-29T10:25:18;98015.88;;;11.61;49.70
39487;BME280;25173;50.430;18.926;2022-12-29T10:28:23;97997.59;;;11.56;50.04
39487;BME280;25173;50.430;18.926;2022-12-29T10:35:18;97982.09;;;11.52;49.99
39487;BME280;25173;50.430;18.926;2022-12-29T10:38:33;97977.75;;;11.51;49.13
39487;BME280;25173;50.430;18.926;2022-12-29T10:41:51;97986.03;;;11.41;49.14
39487;BME280;25173;50.430;18.926;2022-12-29T10:44:55;97988.81;;;11.31;50.02
39487;BME280;25173;50.430;18.926;2022-12-29T10:48:05;97993.19;;;11.26;49.89
39487;BME280;25173;50.430;18.926;2022-12-29T10:51:09;97989.13;;;11.24;50.23
39487;BME280;25173;50.430;18.926;2022-12-29T10:54:38;97984.53;;;11.14;50.00
39487;BME280;25173;50.430;18.926;2022-12-29T10:57:41;97975.31;;;11.05;50.43
39487;BME280;25173;50.430;18.926;2022-12-29T11:00:49;97980.22;;;11.08;50.52
39487;BME280;25173;50.430;18.926;2022-12-29T11:03:58;97972.00;;;11.13;50.55
39487;BME280;25173;50.430;18.926;2022-12-29T11:07:01;97977.41;;;11.23;50.78
39487;BME280;25173;50.430;18.926;2022-12-29T11:10:30;97977.63;;;11.32;49.94
39487;BME280;25173;50.430;18.926;2022-12-29T11:13:34;97982.22;;;11.37;50.43
39487;BME280;25173;50.430;18.926;2022-12-29T11:16:35;97974.00;;;11.42;50.21
39487;BME280;25173;50.430;18.926;2022-12-29T11:19:36;97969.84;;;11.49;50.31
39487;BME280;25173;50.430;18.926;2022-12-29T11:22:44;97994.38;;;11.54;50.00
39487;BME280;25173;50.430;18.926;2022-12-29T11:25:44;97973.13;;;11.51;49.98
39487;BME280;25173;50.430;18.926;2022-12-29T11:29:03;97982.97;;;11.47;49.76
39487;BME280;25173;50.430;18.926;2022-12-29T11:32:17;97978.63;;;11.41;49.88
39487;BME280;25173;50.430;18.926;2022-12-29T11:35:41;97992.03;;;11.38;49.78
39487;BME280;25173;50.430;18.926;2022-12-29T11:38:47;97974.81;;;11.42;50.04
39487;BME280;25173;50.430;18.926;2022-12-29T11:41:53;97977.31;;;11.39;50.11
39487;BME280;25173;50.430;18.926;2022-12-29T11:44:54;97972.94;;;11.38;50.25
39487;BME280;25173;50.430;18.926;2022-12-29T11:47:58;97982.72;;;11.44;50.24
39487;BME280;25173;50.430;18.926;2022-12-29T11:50:59;97980.47;;;11.51;50.24
39487;BME280;25173;50.430;18.926;2022-12-29T11:54:03;97989.97;;;11.58;50.17
39487;BME280;25173;50.430;18.926;2022-12-29T11:57:13;97980.69;;;11.59;49.86
39487;BME280;25173;50.430;18.926;2022-12-29T12:00:23;97994.59;;;11.63;50.04
39487;BME280;25173;50.430;18.926;2022-12-29T12:03:26;98001.38;;;11.65;50.13
39487;BME280;25173;50.430;18.926;2022-12-29T12:06:29;97981.16;;;11.66;50.12
39487;BME280;25173;50.430;18.926;2022-12-29T12:09:45;97997.31;;;11.63;50.00
39487;BME280;25173;50.430;18.926;2022-12-29T12:13:14;97992.94;;;11.62;50.11
39487;BME280;25173;50.430;18.926;2022-12-29T12:16:18;97988.59;;;11.61;50.23
39487;BME280;25173;50.430;18.926;2022-12-29T12:19:53;97986.97;;;11.60;50.16
39487;BME280;25173;50.430;18.926;2022-12-29T12:23:07;97976.03;;;11.60;50.85
39487;BME280;25173;50.430;18.926;2022-12-29T12:29:18;97968.91;;;11.64;51.50
39487;BME280;25173;50.430;18.926;2022-12-29T12:45:24;97947.69;;;11.61;52.15
39487;BME280;25173;50.430;18.926;2022-12-29T12:58:55;97957.69;;;11.71;51.89
39487;BME280;25173;50.430;18.926;2022-12-29T13:02:22;97957.09;;;11.74;51.91
39487;BME280;25173;50.430;18.926;2022-12-29T13:12:07;97943.75;;;11.77;51.59
39487;BME280;25173;50.430;18.926;2022-12-29T13:37:34;97943.06;;;11.90;50.84
39487;BME280;25173;50.430;18.926;2022-12-29T13:40:41;97943.34;;;11.89;50.95
39487;BME280;25173;50.430;18.926;2022-12-29T13:43:45;97943.34;;;11.89;51.01
39487;BME280;25173;50.430;18.926;2022-12-29T13:46:48;97946.63;;;11.91;51.25
39487;BME280;25173;50.430;18.926;2022-12-29T13:49:50;97935.69;;;11.91;51.01
39487;BME280;25173;50.430;18.926;2022-12-29T13:56:12;97943.63;;;11.87;50.93
39487;BME280;25173;50.430;18.926;2022-12-29T14:05:40;97940.78;;;11.68;51.17
39487;BME280;25173;50.430;18.926;2022-12-29T14:08:40;97943.25;;;11.70;51.30
39487;BME280;25173;50.430;18.926;2022-12-29T14:11:41;97941.06;;;11.67;51.22
39487;BME280;25173;50.430;18.926;2022-12-29T14:14:42;97940.78;;;11.68;51.23
39487;BME280;25173;50.430;18.926;2022-12-29T14:17:44;97963.44;;;11.64;51.29
39487;BME280;25173;50.430;18.926;2022-12-29T14:23:54;97946.59;;;11.62;51.66
39487;BME280;25173;50.430;18.926;2022-12-29T14:26:54;97946.28;;;11.63;51.78
39487;BME280;25173;50.430;18.926;2022-12-29T14:29:55;97965.09;;;11.65;51.89
39487;BME280;25173;50.430;18.926;2022-12-29T14:33:10;97955.81;;;11.66;51.63
39487;BME280;25173;50.430;18.926;2022-12-29T14:36:32;97944.34;;;11.64;51.57
39487;BME280;25173;50.430;18.926;2022-12-29T14:39:42;97942.22;;;11.61;51.70
39487;BME280;25173;50.430;18.926;2022-12-29T14:42:44;97950.19;;;11.52;51.74
39487;BME280;25173;50.430;18.926;2022-12-29T14:45:53;97961.38;;;11.51;51.89
39487;BME280;25173;50.430;18.926;2022-12-29T14:48:56;97959.47;;;11.51;52.16
39487;BME280;25173;50.430;18.926;2022-12-29T14:52:20;97962.47;;;11.55;51.98
39487;BME280;25173;50.430;18.926;2022-12-29T14:55:42;97958.88;;;11.59;51.97
39487;BME280;25173;50.430;18.926;2022-12-29T14:58:55;97949.81;;;11.64;52.02
39487;BME280;25173;50.430;18.926;2022-12-29T15:01:57;97956.88;;;11.70;52.18
39487;BME280;25173;50.430;18.926;2022-12-29T15:05:00;97955.75;;;11.71;52.00
39487;BME280;25173;50.430;18.926;2022-12-29T15:08:03;97947.03;;;11.74;52.01
39487;BME280;25173;50.430;18.926;2022-12-29T15:11:11;97957.94;;;11.74;51.96
39487;BME280;25173;50.430;18.926;2022-12-29T15:14:30;97945.13;;;11.75;52.21
39487;BME280;25173;50.430;18.926;2022-12-29T15:17:33;97941.03;;;11.77;52.03
39487;BME280;25173;50.430;18.926;2022-12-29T15:20:34;97949.22;;;11.77;52.11
39487;BME280;25173;50.430;18.926;2022-12-29T15:23:36;97946.16;;;11.79;52.14
39487;BME280;25173;50.430;18.926;2022-12-29T15:26:43;97948.09;;;11.78;52.19
39487;BME280;25173;50.430;18.926;2022-12-29T15:29:46;97953.53;;;11.78;52.07
39487;BME280;25173;50.430;18.926;2022-12-29T15:32:48;97941.53;;;11.79;52.10
39487;BME280;25173;50.430;18.926;2022-12-29T15:35:51;97951.13;;;11.77;52.22
39487;BME280;25173;50.430;18.926;2022-12-29T15:38:52;97946.19;;;11.74;52.35
39487;BME280;25173;50.430;18.926;2022-12-29T15:41:56;97948.38;;;11.77;52.36
39487;BME280;25173;50.430;18.926;2022-12-29T15:45:03;97944.78;;;11.81;52.42
39487;BME280;25173;50.430;18.926;2022-12-29T15:48:10;97946.16;;;11.84;52.43
39487;BME280;25173;50.430;18.926;2022-12-29T15:51:29;97946.38;;;11.87;52.39
39487;BME280;25173;50.430;18.926;2022-12-29T15:54:30;97945.84;;;11.85;52.40
39487;BME280;25173;50.430;18.926;2022-12-29T15:57:42;97955.97;;;11.85;52.57
39487;BME280;25173;50.430;18.926;2022-12-29T16:00:50;97950.25;;;11.81;52.43
39487;BME280;25173;50.430;18.926;2022-12-29T16:03:53;97956.81;;;11.80;52.53
39487;BME280;25173;50.430;18.926;2022-12-29T16:07:05;97951.41;;;11.75;52.50
39487;BME280;25173;50.430;18.926;2022-12-29T16:10:40;97957.69;;;11.71;52.47
39487;BME280;25173;50.430;18.926;2022-12-29T16:13:43;97947.97;;;11.59;52.61
39487;BME280;25173;50.430;18.926;2022-12-29T16:16:45;97954.03;;;11.51;52.74
39487;BME280;25173;50.430;18.926;2022-12-29T16:19:57;97958.72;;;11.46;52.84
39487;BME280;25173;50.430;18.926;2022-12-29T16:22:59;97962.00;;;11.43;52.92
39487;BME280;25173;50.430;18.926;2022-12-29T16:26:00;97954.69;;;11.38;52.89
39487;BME280;25173;50.430;18.926;2022-12-29T16:29:05;97959.31;;;11.38;52.86
39487;BME280;25173;50.430;18.926;2022-12-29T16:32:27;97947.31;;;11.39;52.85
39487;BME280;25173;50.430;18.926;2022-12-29T16:35:45;97943.50;;;11.40;52.74
39487;BME280;25173;50.430;18.926;2022-12-29T16:38:46;97945.16;;;11.36;52.73
39487;BME280;25173;50.430;18.926;2022-12-29T16:41:47;97942.69;;;11.34;52.67
39487;BME280;25173;50.430;18.926;2022-12-29T16:44:51;97943.00;;;11.33;52.70
39487;BME280;25173;50.430;18.926;2022-12-29T16:51:12;97944.69;;;11.23;52.75
39487;BME280;25173;50.430;18.926;2022-12-29T16:54:20;97956.13;;;11.25;52.88
39487;BME280;25173;50.430;18.926;2022-12-29T16:57:28;97952.28;;;11.26;52.83
39487;BME280;25173;50.430;18.926;2022-12-29T17:00:35;97955.34;;;11.20;52.77
39487;BME280;25173;50.430;18.926;2022-12-29T17:03:42;97953.72;;;11.19;52.88
39487;BME280;25173;50.430;18.926;2022-12-29T17:06:44;97953.97;;;11.22;52.79
39487;BME280;25173;50.430;18.926;2022-12-29T17:09:45;97957.56;;;11.18;52.73
39487;BME280;25173;50.430;18.926;2022-12-29T17:12:47;97956.47;;;11.14;52.79
39487;BME280;25173;50.430;18.926;2022-12-29T17:15:48;97972.00;;;11.13;52.84
39487;BME280;25173;50.430;18.926;2022-12-29T17:18:49;97969.28;;;11.13;52.82
39487;BME280;25173;50.430;18.926;2022-12-29T17:21:50;97977.47;;;11.13;52.78
39487;BME280;25173;50.430;18.926;2022-12-29T17:24:53;97978.03;;;11.10;52.86
39487;BME280;25173;50.430;18.926;2022-12-29T17:31:04;97963.88;;;11.08;52.93
39487;BME280;25173;50.430;18.926;2022-12-29T17:34:07;97969.88;;;11.10;52.88
39487;BME280;25173;50.430;18.926;2022-12-29T17:40:27;97963.28;;;11.16;52.74
39487;BME280;25173;50.430;18.926;2022-12-29T17:43:28;97972.00;;;11.13;52.71
39487;BME280;25173;50.430;18.926;2022-12-29T17:46:29;97965.75;;;11.13;52.82
39487;BME280;25173;50.430;18.926;2022-12-29T17:49:29;97957.06;;;11.11;52.70
39487;BME280;25173;50.430;18.926;2022-12-29T17:52:31;97957.88;;;11.06;52.59
39487;BME280;25173;50.430;18.926;2022-12-29T17:55:32;97965.88;;;10.93;52.78
39487;BME280;25173;50.430;18.926;2022-12-29T17:58:33;97968.91;;;10.86;52.85
39487;BME280;25173;50.430;18.926;2022-12-29T18:01:34;97965.69;;;10.79;52.87
39487;BME280;25173;50.430;18.926;2022-12-29T18:04:35;97969.25;;;10.69;52.91
39487;BME280;25173;50.430;18.926;2022-12-29T18:07:35;97972.84;;;10.60;53.09
39487;BME280;25173;50.430;18.926;2022-12-29T18:10:37;97966.31;;;10.56;53.15
39487;BME280;25173;50.430;18.926;2022-12-29T18:13:38;97974.53;;;10.50;53.15
39487;BME280;25173;50.430;18.926;2022-12-29T18:16:39;97979.16;;;10.50;53.11
39487;BME280;25173;50.430;18.926;2022-12-29T18:19:39;97983.78;;;10.49;53.29
39487;BME280;25173;50.430;18.926;2022-12-29T18:22:40;97981.59;;;10.46;53.26
39487;BME280;25173;50.430;18.926;2022-12-29T18:25:44;97993.06;;;10.43;53.46